Terminal Aerodrome Forecast
Issued by NWS Wilmington, OH

Current Version | Previous Version | Text Only | Print | Product List | Glossary Off
Versions: 1 2 3 4 5 6 7 8 9 10 11 12

674
FTUS41 KILN 210536
TAFILN
TAF
KILN 210536Z 2106/2206 06005KT P6SM SCT250
     FM211500 07007KT P6SM BKN200=

USA.gov is the U.S. government's official web portal to all federal, state and local government web resources and services.